ADDS METAR Data INFO
IDs: Format: Raw Decoded Include TAF

Data at: 1155 UTC 21 Jun 2018

KVPZ 211120Z AUTO 10011KT 2 1/2SM BR OVC006 20/19 A2979 RMK AO2 T02000189
KVPZ 211056Z AUTO 11010KT 4SM BR OVC006 20/19 A2980 RMK AO2 SLP086 T02000189
KVPZ 210956Z AUTO 08010KT 3SM BR OVC006 20/19 A2979 RMK AO2 RAE17 SLP081 P0000 T02000194
KVPZ 210856Z AUTO 08008KT 3SM -RA BR OVC007 21/19 A2979 RMK AO2 RAB40 SLP083 P0001 60001 T02060194 56016
KVPZ 210841Z AUTO 10005KT 3SM -RA BR BKN007 OVC095 20/19 A2980 RMK AO2 RAB40 P0000 T02000194
KVPZ 210814Z AUTO 09008KT 3SM BR SCT009 BKN090 OVC120 20/19 A2980 RMK AO2 T02000194
KVPZ 210756Z AUTO 07010KT 4SM BR OVC009 21/19 A2980 RMK AO2 RAB31E40 SLP086 P0000 T02060189
KVPZ 210722Z AUTO 35004KT 3SM BR BKN008 BKN033 OVC043 21/19 A2982 RMK AO2 T02060194
KVPZ 210656Z AUTO 07004KT 4SM BR BKN043 OVC060 21/19 A2982 RMK AO2 RAE05 SLP092 P0000 T02060194
KVPZ 210640Z AUTO 08004KT 4SM BR SCT009 OVC060 21/19 A2982 RMK AO2 LTG DSNT W RAE05 P0000 T02060194
KVPZ 210610Z AUTO 10006KT 4SM BR BKN009 BKN050 OVC070 21/19 A2983 RMK AO2 LTG DSNT SE RAE05 P0000 T02060194
KVPZ 210603Z AUTO 14004KT 4SM -RA BR SCT009 BKN050 OVC085 21/19 A2984 RMK AO2 LTG DSNT SE AND W P0000 T02060194
KVPZ 210556Z AUTO 13006KT 2 1/2SM -RA BR SCT009 BKN070 OVC085 21/19 A2984 RMK AO2 LTG DSNT W RAB38 SLP099 P0006 60006 T02060194 10239 20206 402720194 56011
KVPZ 210535Z AUTO 10005KT 6SM BR SCT009 OVC090 21/19 A2984 RMK AO2 T02110194
KVPZ 210456Z AUTO 08006KT 5SM BR BKN009 21/19 A2985 RMK AO2 SLP101 T02110194
KVPZ 210440Z AUTO 09008KT 5SM BR BKN009 BKN065 21/19 A2984 RMK AO2 T02110194
KVPZ 210419Z AUTO 07005KT 5SM BR FEW009 SCT065 21/19 A2984 RMK AO2 T02060194
KVPZ 210356Z AUTO 06005KT 5SM BR BKN065 21/19 A2985 RMK AO2 SLP103 T02060189
KVPZ 210307Z AUTO 02004KT 5SM BR SCT007 OVC060 21/19 A2987 RMK AO2 T02060189
KVPZ 210256Z AUTO 01005KT 5SM BR BKN007 OVC055 21/19 A2987 RMK AO2 SLP112 T02060189 53011
KVPZ 210156Z AUTO 04007KT 6SM BR OVC007 21/19 A2986 RMK AO2 SLP107 T02060189
KVPZ 210144Z AUTO 03006KT 6SM BR BKN007 21/19 A2985 RMK AO2 T02060189
KVPZ 210136Z AUTO 02006KT 6SM BR SCT007 21/19 A2985 RMK AO2 T02060189
KVPZ 210056Z AUTO 35006KT 4SM HZ CLR 22/19 A2986 RMK AO2 SLP106 T02170189
KVPZ 202356Z AUTO VRB04KT 7SM CLR 24/19 A2984 RMK AO2 SLP100 T02390194 10272 20239 53000
KVPZ 202256Z AUTO 36005KT 8SM FEW034 24/19 A2982 RMK AO2 SLP092 T02390189
KVPZ 202156Z AUTO 34007KT 9SM BKN035 25/19 A2984 RMK AO2 SLP099 T02500194
KVPZ 202056Z AUTO 33006KT 10SM CLR 27/20 A2984 RMK AO2 SLP099 T02720200 58013
KVPZ 201956Z AUTO VRB03KT 10SM FEW033 27/19 A2986 RMK AO2 SLP105 T02720194
KVPZ 201856Z AUTO 8SM CLR 27/20 A2987 RMK AO2 SLP110 T02670200
KVPZ 201833Z AUTO 32006KT 7SM SCT020 26/20 A2988 RMK AO2 T02610200
KVPZ 201823Z AUTO 35008KT 8SM BKN021 27/20 A2988 RMK AO2 T02670200
KVPZ 201810Z AUTO 34006KT 10SM SCT021 27/20 A2988 RMK AO2 T02720200
KVPZ 201756Z AUTO 35008KT 10SM BKN021 26/20 A2988 RMK AO2 SLP112 T02610200 10272 20200 56004
KVPZ 201703Z AUTO 35008KT 10SM BKN017 26/20 A2988 RMK AO2 T02610200
KVPZ 201656Z AUTO 35005KT 10SM SCT019 27/21 A2988 RMK AO2 SLP113 T02670206
KVPZ 201654Z AUTO 34005KT 10SM SCT019 27/20 A2988 RMK AO2
KVPZ 201612Z AUTO 30004KT 9SM FEW016 BKN022 26/20 A2989 RMK AO2 T02560200
KVPZ 201605Z AUTO 28007KT 9SM SCT021 25/19 A2989 RMK AO2 T02500194
KVPZ 201556Z AUTO VRB03KT 8SM FEW014 BKN021 BKN045 25/19 A2989 RMK AO2 SLP116 T02500194
KVPZ 201516Z AUTO 32007KT 6SM HZ SCT010 BKN033 BKN047 24/19 A2989 RMK AO2 T02390194
KVPZ 201509Z AUTO 28005KT 6SM HZ BKN009 BKN033 24/19 A2989 RMK AO2 CIG 009V012 T02390194
KVPZ 201456Z AUTO 31003KT 5SM HZ SCT009 BKN033 BKN042 23/19 A2988 RMK AO2 SLP113 T02280194 50003
KVPZ 201443Z AUTO 32004KT 5SM HZ SCT007 BKN034 OVC044 22/19 A2988 RMK AO2 T02170189
KVPZ 201356Z AUTO 30005KT 3SM BR OVC006 21/19 A2989 RMK AO2 SLP117 T02060189
KVPZ 201333Z AUTO 30007KT 3SM BR OVC005 21/19 A2989 RMK AO2 T02110189
KVPZ 201256Z AUTO 28006KT 2 1/2SM BR OVC005 21/19 A2988 RMK AO2 SLP113 T02060189
KVPZ 201244Z AUTO 29008KT 2 1/2SM BR BKN005 OVC013 21/19 A2987 RMK AO2 T02060189
KVPZ 201235Z AUTO 30006KT 3SM BR SCT006 OVC013 21/19 A2988 RMK AO2 T02060189
KVPZ 201217Z AUTO 30007KT 2 1/2SM BR SCT006 OVC013 20/18 A2987 RMK AO2 T02000183
KVPZ 201156Z AUTO 29006KT 2 1/2SM BR BKN006 OVC012 21/18 A2987 RMK AO2 SLP111 70001 T02060183 10211 20194 53000
KVPZ 201056Z AUTO 30003KT 4SM BR OVC007 20/18 A2987 RMK AO2 SLP110 T02000183
KVPZ 201015Z AUTO 30003KT 4SM BR OVC005 19/18 A2987 RMK AO2 CIG 003V008 T01940183
KVPZ 201007Z AUTO 31005KT 4SM BR OVC004 19/18 A2987 RMK AO2 CIG 003V008 T01940183
KVPZ 200956Z AUTO 29005KT 2SM BR OVC004 19/19 A2987 RMK AO2 SLP110 T01940189
KVPZ 200951Z AUTO 30005KT 1 1/2SM BR OVC004 19/19 A2987 RMK AO2
KVPZ 200944Z AUTO 28005KT 2SM BR OVC004 20/18 A2987 RMK AO2 T02000183
KVPZ 200933Z AUTO 28003KT 3SM BR OVC004 20/19 A2987 RMK AO2 T02000189
KVPZ 200856Z AUTO 33003KT 3SM BR BKN005 OVC040 20/18 A2986 RMK AO2 SLP107 T02000183 58004
KVPZ 200851Z AUTO 00000KT 2 1/2SM BR BKN005 BKN029 OVC040 20/19 A2986 RMK AO2
KVPZ 200817Z AUTO 00000KT 2 1/2SM BR FEW004 SCT020 BKN029 20/19 A2987 RMK AO2 T02000189
KVPZ 200756Z AUTO 32003KT 2 1/2SM BR SCT004 BKN010 20/19 A2988 RMK AO2 SLP111 T02000189
KVPZ 200752Z AUTO 34003KT 2 1/2SM BR SCT004 OVC010 20/19 A2988 RMK AO2
KVPZ 200740Z AUTO 34004KT 2SM BR BKN004 OVC011 20/19 A2987 RMK AO2 T02000189
KVPZ 200718Z AUTO 31006KT 1 1/4SM BR OVC002 20/19 A2987 RMK AO2 LTG DSNT NE T02000194
KVPZ 200710Z AUTO 33004KT 3/4SM BR OVC002 20/19 A2987 RMK AO2 LTG DSNT NE T02000194
KVPZ 200656Z AUTO 32004KT 1SM BR OVC002 20/19 A2987 RMK AO2 SLP110 T02000194
KVPZ 200625Z AUTO 28004KT 1 1/2SM BR OVC004 21/19 A2988 RMK AO2 T02060194
KVPZ 200609Z AUTO 30007KT 2 1/2SM BR OVC004 21/19 A2989 RMK AO2 T02060194
KVPZ 200556Z AUTO 29006KT 3SM BR BKN005 OVC065 21/20 A2989 RMK AO2 LTG DSNT N SLP115 T02110200 10239 20211 403060200 50008
KVPZ 200514Z AUTO 00000KT 3SM BR FEW005 SCT011 SCT070 21/20 A2988 RMK AO2 T02110200
KVPZ 200505Z AUTO 00000KT 4SM BR FEW006 BKN010 BKN070 21/20 A2988 RMK AO2 LTG DSNT NW T02110200
KVPZ 200456Z AUTO 00000KT 3SM BR BKN012 21/20 A2989 RMK AO2 SLP115 T02110200
KVPZ 200434Z AUTO 28003KT 4SM BR FEW008 SCT014 22/20 A2989 RMK AO2 T02170200
KVPZ 200427Z AUTO 28004KT 4SM BR SCT008 BKN015 22/20 A2989 RMK AO2 T02170200
KVPZ 200403Z AUTO 26007KT 5SM BR SCT006 OVC010 23/21 A2989 RMK AO2 T02280211
KVPZ 200356Z AUTO 27004KT 5SM BR OVC010 23/22 A2989 RMK AO2 CIG 005V012 SLP115 T02280217
KVPZ 200322Z AUTO 00000KT 4SM BR SCT005 BKN011 23/22 A2988 RMK AO2 T02280217
KVPZ 200256Z AUTO 08003KT 3SM BR BKN007 23/22 A2987 RMK AO2 SLP108 T02280217 58008
KVPZ 200225Z AUTO 00000KT 5SM BR BKN008 BKN011 OVC017 23/22 A2987 RMK AO2 T02280217
KVPZ 200215Z AUTO 00000KT 5SM BR BKN010 OVC015 23/22 A2988 RMK AO2 T02330217
KVPZ 200156Z AUTO 00000KT 6SM BR BKN009 OVC015 23/22 A2987 RMK AO2 CIG 007V012 SLP110 T02330217
KVPZ 200104Z AUTO 25005KT 8SM BKN009 24/22 A2990 RMK AO2 T02390222
KVPZ 200056Z AUTO 00000KT 8SM SCT011 24/22 A2989 RMK AO2 SLP117 T02390222
KVPZ 200029Z AUTO 00000KT 7SM FEW012 24/22 A2988 RMK AO2 T02390222
KVPZ 200022Z AUTO 00000KT 8SM SCT012 BKN022 24/22 A2988 RMK AO2 T02390222
KVPZ 192356Z AUTO VRB03KT 8SM CLR 24/22 A2989 RMK AO2 SLP116 60001 T02390222 10306 20239 50001